createdAt,value
2023-04-04T00:01:42.086Z,1.11
2023-04-04T00:04:08.799Z,0.97
2023-04-04T00:06:35.475Z,0.88
2023-04-04T00:09:02.109Z,0.99
2023-04-04T00:11:28.829Z,0.73
2023-04-04T00:13:55.445Z,0.69
2023-04-04T00:16:22.247Z,0.68
2023-04-04T00:18:48.985Z,0.75
2023-04-04T00:21:15.616Z,0.91
2023-04-04T00:23:42.278Z,0.78
2023-04-04T00:26:08.866Z,0.70
2023-04-04T00:28:35.517Z,0.95
2023-04-04T00:31:02.229Z,0.78
2023-04-04T00:33:28.865Z,0.86
2023-04-04T00:35:55.530Z,0.75
2023-04-04T00:38:22.268Z,0.93
2023-04-04T00:40:51.071Z,0.83
2023-04-04T00:43:19.039Z,0.75
2023-04-04T00:45:46.566Z,0.45
2023-04-04T00:48:13.704Z,0.47
2023-04-04T00:50:40.567Z,0.40
2023-04-04T00:53:07.743Z,0.47
2023-04-04T00:55:37.627Z,0.26
2023-04-04T00:58:04.829Z,0.33
2023-04-04T01:00:34.520Z,0.31
2023-04-04T01:03:01.522Z,0.43
2023-04-04T01:05:28.341Z,0.32
2023-04-04T01:07:55.251Z,0.41
2023-04-04T01:10:21.894Z,0.18
2023-04-04T01:12:48.749Z,0.25
2023-04-04T01:15:15.572Z,0.07
2023-04-04T01:17:42.481Z,0.13
2023-04-04T01:20:14.306Z,0.28
2023-04-04T01:22:42.599Z,0.27
2023-04-04T01:25:09.608Z,0.03
2023-04-04T01:27:36.385Z,0.05
2023-04-04T01:30:03.707Z,0.12
2023-04-04T01:32:53.563Z,0.09
2023-04-04T01:35:54.929Z,0.07
2023-04-04T01:38:31.049Z,0.02
2023-04-04T01:41:08.264Z,0.01
2023-04-04T01:43:35.442Z,0.11
2023-04-04T01:46:02.110Z,-0.23
2023-04-04T01:48:28.788Z,-0.13
2023-04-04T01:50:55.527Z,0.13
2023-04-04T01:53:22.140Z,0.28
2023-04-04T01:55:48.761Z,-0.00
2023-04-04T01:58:15.818Z,0.14
2023-04-04T02:00:42.801Z,0.10
2023-04-04T02:03:09.514Z,-0.13
2023-04-04T02:05:36.101Z,-0.15
2023-04-04T02:08:02.810Z,-0.17
2023-04-04T02:10:29.564Z,-0.16
2023-04-04T02:12:56.190Z,-0.25
2023-04-04T02:15:22.897Z,-0.10
2023-04-04T02:17:49.952Z,-0.00
2023-04-04T02:20:16.942Z,0.06
2023-04-04T02:22:43.582Z,-0.17
2023-04-04T02:25:10.178Z,-0.45
2023-04-04T02:27:36.873Z,-0.39
2023-04-04T02:30:03.618Z,-0.29
2023-04-04T02:32:30.269Z,-0.38
2023-04-04T02:34:56.959Z,-0.41
2023-04-04T02:37:23.602Z,-0.33
2023-04-04T02:39:50.451Z,-0.48
2023-04-04T02:42:17.063Z,-0.47
2023-04-04T02:44:43.706Z,-0.31
2023-04-04T02:47:10.425Z,-0.30
2023-04-04T02:49:37.196Z,-0.42
2023-04-04T02:52:04.048Z,-0.15
2023-04-04T02:54:30.691Z,-0.50
2023-04-04T02:56:57.331Z,-0.66
2023-04-04T02:59:24.258Z,-0.18
2023-04-04T03:01:51.168Z,-0.37
2023-04-04T03:04:17.866Z,-0.17
2023-04-04T03:06:44.523Z,-0.30
2023-04-04T03:09:11.504Z,-0.24
2023-04-04T03:11:38.171Z,-0.28
2023-04-04T03:14:04.925Z,-0.59
2023-04-04T03:16:31.791Z,-0.47
2023-04-04T03:18:58.607Z,-0.29
2023-04-04T03:21:25.563Z,-0.21
2023-04-04T03:23:52.167Z,-0.27
2023-04-04T03:26:18.802Z,-0.43
2023-04-04T03:28:45.448Z,-0.18
2023-04-04T03:31:12.036Z,-0.32
2023-04-04T03:33:38.731Z,-0.23
2023-04-04T03:36:12.776Z,-0.36
2023-04-04T03:38:40.086Z,-0.41
2023-04-04T03:41:07.811Z,-0.49
2023-04-04T03:43:34.797Z,-0.68
2023-04-04T03:46:05.595Z,-0.60
2023-04-04T03:48:32.698Z,-0.61
2023-04-04T03:50:59.970Z,-0.42
2023-04-04T03:53:27.232Z,-0.37
2023-04-04T03:55:56.323Z,-0.65
2023-04-04T03:58:23.825Z,-0.47
2023-04-04T04:00:50.436Z,-0.44
2023-04-04T04:03:17.424Z,-0.53
2023-04-04T04:05:44.180Z,-0.67
2023-04-04T04:08:10.896Z,-0.47
2023-04-04T04:10:37.534Z,-0.69
2023-04-04T04:13:04.178Z,-0.48
2023-04-04T04:15:30.791Z,-0.43
2023-04-04T04:17:57.475Z,-0.31
2023-04-04T04:20:24.116Z,-0.56
2023-04-04T04:22:52.554Z,-0.65
2023-04-04T04:25:20.569Z,-0.60
2023-04-04T04:27:47.181Z,-0.67
2023-04-04T04:30:13.932Z,-0.68
2023-04-04T04:32:40.645Z,-0.75
2023-04-04T04:35:08.141Z,-0.82
2023-04-04T04:37:34.870Z,-1.08
2023-04-04T04:40:01.513Z,-0.95
2023-04-04T04:42:28.153Z,-0.90
2023-04-04T04:44:54.790Z,-0.71
2023-04-04T04:47:21.527Z,-0.68
2023-04-04T04:49:48.207Z,-0.55
2023-04-04T04:52:14.867Z,-0.57
2023-04-04T04:54:41.494Z,-0.77
2023-04-04T04:57:08.133Z,-0.33
2023-04-04T04:59:34.789Z,-0.48
2023-04-04T05:02:01.597Z,-0.88
2023-04-04T05:04:28.370Z,-0.82
2023-04-04T05:06:54.962Z,-0.59
2023-04-04T05:09:21.653Z,-0.61
2023-04-04T05:11:48.290Z,-0.36
2023-04-04T05:14:14.936Z,-0.46
2023-04-04T05:16:41.582Z,-0.58
2023-04-04T05:19:08.226Z,-0.77
2023-04-04T05:21:34.873Z,-0.83
2023-04-04T05:24:01.560Z,-0.70
2023-04-04T05:26:28.167Z,-0.62
2023-04-04T05:28:54.826Z,-0.42
2023-04-04T05:31:21.454Z,-0.40
2023-04-04T05:33:48.061Z,-0.22
2023-04-04T05:36:14.902Z,-0.19
2023-04-04T05:38:41.725Z,-0.24
2023-04-04T05:41:08.333Z,-0.32
2023-04-04T05:43:35.018Z,-0.38
2023-04-04T05:46:01.867Z,-0.48
2023-04-04T05:48:28.524Z,-0.48
2023-04-04T05:50:55.124Z,-0.44
2023-04-04T05:53:21.761Z,-0.54
2023-04-04T05:55:57.444Z,-0.49
2023-04-04T05:58:24.123Z,-0.33
2023-04-04T06:00:50.903Z,-0.18
2023-04-04T06:03:19.668Z,-0.24
2023-04-04T06:05:53.983Z,-0.15
2023-04-04T06:08:20.648Z,-0.13
2023-04-04T06:10:47.266Z,-0.00
2023-04-04T06:13:13.881Z,0.13
2023-04-04T06:15:40.530Z,0.20
2023-04-04T06:18:07.373Z,0.34
2023-04-04T06:20:34.086Z,0.18
2023-04-04T06:23:00.725Z,0.41
2023-04-04T06:25:27.609Z,0.37
2023-04-04T06:27:54.213Z,0.31
2023-04-04T06:30:21.303Z,0.51
2023-04-04T06:32:47.931Z,0.55
2023-04-04T06:35:14.676Z,0.56
2023-04-04T06:37:41.299Z,0.75
2023-04-04T06:40:08.555Z,0.74
2023-04-04T06:42:35.204Z,0.69
2023-04-04T06:45:01.870Z,0.58
2023-04-04T06:47:28.500Z,0.38
2023-04-04T06:49:55.315Z,0.72
2023-04-04T06:52:22.180Z,0.58
2023-04-04T06:54:49.452Z,0.81
2023-04-04T06:57:16.099Z,0.74
2023-04-04T06:59:44.928Z,0.81
2023-04-04T07:02:11.924Z,0.85
2023-04-04T07:04:38.574Z,0.85
2023-04-04T07:07:05.231Z,0.77
2023-04-04T07:09:31.920Z,0.92
2023-04-04T07:11:58.580Z,0.99
2023-04-04T07:14:25.757Z,0.96
2023-04-04T07:16:53.293Z,1.17
2023-04-04T07:19:20.158Z,1.04
2023-04-04T07:21:46.863Z,1.40
2023-04-04T07:24:13.488Z,1.70
2023-04-04T07:26:40.227Z,1.78
2023-04-04T07:29:06.940Z,1.98
2023-04-04T07:31:33.702Z,2.23
2023-04-04T07:34:00.357Z,2.04
2023-04-04T07:36:26.996Z,2.13
2023-04-04T07:38:53.668Z,2.29
2023-04-04T07:41:20.464Z,2.26
2023-04-04T07:43:47.144Z,2.21
2023-04-04T07:46:13.973Z,2.29
2023-04-04T07:48:40.703Z,2.35
2023-04-04T07:51:07.455Z,2.38
2023-04-04T07:53:34.119Z,2.20
2023-04-04T07:56:00.753Z,2.29
2023-04-04T07:58:27.370Z,2.39
2023-04-04T08:00:54.110Z,2.63
2023-04-04T08:03:20.934Z,2.38
2023-04-04T08:05:47.676Z,2.32
2023-04-04T08:08:14.572Z,2.34
2023-04-04T08:10:41.625Z,2.50
2023-04-04T08:13:08.504Z,2.67
2023-04-04T08:15:35.194Z,2.91
2023-04-04T08:18:02.117Z,2.88
2023-04-04T08:20:28.902Z,3.09
2023-04-04T08:22:55.470Z,3.36
2023-04-04T08:25:22.129Z,3.14
2023-04-04T08:27:48.754Z,2.97
2023-04-04T08:30:15.624Z,3.24
2023-04-04T08:32:42.737Z,3.21
2023-04-04T08:35:09.921Z,2.96
2023-04-04T08:37:36.673Z,3.11
2023-04-04T08:40:04.416Z,3.39
2023-04-04T08:42:33.501Z,3.28
2023-04-04T08:45:02.113Z,3.47
2023-04-04T08:47:33.177Z,3.28
2023-04-04T08:50:00.396Z,3.43
2023-04-04T08:52:28.273Z,3.33
2023-04-04T08:54:56.097Z,3.40
2023-04-04T08:57:22.755Z,3.18
2023-04-04T08:59:49.566Z,2.94
2023-04-04T09:02:38.032Z,3.16
2023-04-04T09:05:06.651Z,3.49
2023-04-04T09:07:37.113Z,3.53
2023-04-04T09:10:06.150Z,3.34
2023-04-04T09:12:36.799Z,3.55
2023-04-04T09:15:03.935Z,3.59
2023-04-04T09:17:30.643Z,3.81
2023-04-04T09:20:01.686Z,3.51
2023-04-04T09:22:28.299Z,3.42
2023-04-04T09:24:54.892Z,3.73
2023-04-04T09:27:21.557Z,3.98
2023-04-04T09:29:48.492Z,3.90
2023-04-04T09:32:16.282Z,4.12
2023-04-04T09:34:44.143Z,4.20
2023-04-04T09:37:10.886Z,4.18
2023-04-04T09:39:39.305Z,4.17
2023-04-04T09:42:06.609Z,4.60
2023-04-04T09:44:35.769Z,4.84
2023-04-04T09:49:57.978Z,4.52
2023-04-04T09:52:24.819Z,4.37
2023-04-04T09:55:03.089Z,4.32
2023-04-04T09:57:31.921Z,4.54
2023-04-04T09:59:59.813Z,4.67
2023-04-04T10:02:27.607Z,4.74
2023-04-04T10:05:05.265Z,4.90
2023-04-04T10:07:33.129Z,4.78
2023-04-04T10:10:06.640Z,4.83
2023-04-04T10:12:33.397Z,4.95
2023-04-04T10:15:01.176Z,5.14
2023-04-04T10:17:41.220Z,5.23
2023-04-04T10:20:09.618Z,5.18
2023-04-04T10:22:37.881Z,5.17
2023-04-04T10:25:05.929Z,5.15
2023-04-04T10:27:33.236Z,5.40
2023-04-04T10:30:03.428Z,5.70
2023-04-04T10:32:42.119Z,5.30
2023-04-04T10:35:09.675Z,5.56
2023-04-04T10:37:43.102Z,5.69
2023-04-04T10:40:16.272Z,5.89
2023-04-04T10:42:48.526Z,5.66
2023-04-04T10:45:21.124Z,5.56
2023-04-04T10:47:48.950Z,5.53
2023-04-04T10:50:15.743Z,5.70
2023-04-04T10:52:44.151Z,5.94
2023-04-04T10:55:13.131Z,5.85
2023-04-04T10:57:45.752Z,5.90
2023-04-04T11:00:17.229Z,6.10
2023-04-04T11:02:53.071Z,6.37
2023-04-04T11:05:22.394Z,6.76
2023-04-04T11:08:07.340Z,6.52
2023-04-04T11:10:36.403Z,6.55
2023-04-04T11:13:14.750Z,6.25
2023-04-04T11:16:07.264Z,6.40
2023-04-04T11:18:39.961Z,6.14
2023-04-04T11:21:08.554Z,6.03
2023-04-04T11:23:47.319Z,6.04
2023-04-04T11:26:17.497Z,6.26
2023-04-04T11:28:46.025Z,6.74
2023-04-04T11:31:15.801Z,6.79
2023-04-04T11:33:58.300Z,6.98
2023-04-04T11:36:45.476Z,6.99
2023-04-04T11:39:21.495Z,6.92
2023-04-04T11:41:54.606Z,7.14
2023-04-04T11:44:27.016Z,7.37
2023-04-04T11:47:05.419Z,7.55
2023-04-04T11:49:37.133Z,7.44
2023-04-04T11:52:12.148Z,7.30
2023-04-04T11:54:40.979Z,7.39
2023-04-04T11:57:12.195Z,7.66
2023-04-04T11:59:44.292Z,7.43
2023-04-04T12:02:12.530Z,7.12
2023-04-04T12:04:42.825Z,7.13
2023-04-04T12:07:10.451Z,6.94
2023-04-04T12:09:38.257Z,6.86
2023-04-04T12:12:05.194Z,7.35
2023-04-04T12:14:33.231Z,7.25
2023-04-04T12:17:00.287Z,7.14
2023-04-04T12:19:28.790Z,7.17
2023-04-04T12:21:57.535Z,7.17
2023-04-04T12:24:24.442Z,7.18
2023-04-04T12:26:52.927Z,7.10
2023-04-04T12:29:22.932Z,7.30
2023-04-04T12:31:51.100Z,7.53
2023-04-04T12:34:19.186Z,7.30
2023-04-04T12:36:50.492Z,7.31
2023-04-04T12:39:17.195Z,7.40
2023-04-04T12:41:54.830Z,6.66
2023-04-04T12:44:34.171Z,6.79
2023-04-04T12:47:03.652Z,6.76
2023-04-04T12:49:32.801Z,7.24
2023-04-04T12:51:59.506Z,7.47
2023-04-04T12:54:31.315Z,7.33
2023-04-04T12:56:58.859Z,7.14
2023-04-04T12:59:30.348Z,7.31
2023-04-04T13:01:57.754Z,7.19
2023-04-04T13:04:24.736Z,7.44
2023-04-04T13:06:51.822Z,7.50
2023-04-04T13:09:20.310Z,7.63
2023-04-04T13:12:07.113Z,7.32
2023-04-04T13:15:05.640Z,7.42
2023-04-04T13:17:46.657Z,7.22
2023-04-04T13:20:15.707Z,7.31
2023-04-04T13:22:43.085Z,7.18
2023-04-04T13:25:10.914Z,7.23
2023-04-04T13:27:38.660Z,7.39
2023-04-04T13:30:07.080Z,7.50
2023-04-04T13:32:34.285Z,7.29
2023-04-04T13:35:00.937Z,7.63
2023-04-04T13:37:27.628Z,7.63
2023-04-04T13:39:54.236Z,7.87
2023-04-04T13:42:20.999Z,7.83
2023-04-04T13:44:47.746Z,7.32
2023-04-04T13:47:14.734Z,7.74
2023-04-04T13:49:41.376Z,7.99
2023-04-04T13:52:07.953Z,7.84
2023-04-04T13:54:34.562Z,7.50
2023-04-04T13:57:01.220Z,7.62
2023-04-04T13:59:27.914Z,7.42
2023-04-04T14:01:54.841Z,7.82
2023-04-04T14:04:24.078Z,8.01
2023-04-04T14:06:51.149Z,7.92
2023-04-04T14:09:17.745Z,7.97
2023-04-04T14:11:45.880Z,8.18
2023-04-04T14:14:12.560Z,8.05
2023-04-04T14:16:39.280Z,8.36
2023-04-04T14:19:06.073Z,8.79
2023-04-04T14:21:32.778Z,8.50
2023-04-04T14:23:59.452Z,8.40
2023-04-04T14:26:26.157Z,8.70
2023-04-04T14:28:52.814Z,8.83
2023-04-04T14:31:19.601Z,9.12
2023-04-04T14:33:46.284Z,9.23
2023-04-04T14:36:12.928Z,9.01
2023-04-04T14:38:39.590Z,9.41
2023-04-04T14:41:06.227Z,9.34
2023-04-04T14:43:32.851Z,8.84
2023-04-04T14:45:59.532Z,8.60
2023-04-04T14:48:26.147Z,8.53
2023-04-04T14:50:52.910Z,8.40
2023-04-04T14:53:19.559Z,8.03
2023-04-04T14:55:46.216Z,7.99
2023-04-04T14:58:12.861Z,8.39
2023-04-04T15:00:39.493Z,8.83
2023-04-04T15:03:07.223Z,8.93
2023-04-04T15:05:34.126Z,8.88
2023-04-04T15:08:00.791Z,8.42
2023-04-04T15:10:27.499Z,8.40
2023-04-04T15:12:54.122Z,8.88
2023-04-04T15:15:23.445Z,8.38
2023-04-04T15:17:51.169Z,8.71
2023-04-04T15:20:18.080Z,8.66
2023-04-04T15:22:44.914Z,8.39
2023-04-04T15:25:11.638Z,8.16
2023-04-04T15:27:38.430Z,8.02
2023-04-04T15:30:05.561Z,8.28
2023-04-04T15:32:32.363Z,8.51
2023-04-04T15:34:59.102Z,8.75
2023-04-04T15:37:25.699Z,8.72
2023-04-04T15:39:53.827Z,8.53
2023-04-04T15:42:21.180Z,8.52
2023-04-04T15:44:47.818Z,8.33
2023-04-04T15:47:16.358Z,8.51
2023-04-04T15:49:43.264Z,8.49
2023-04-04T15:52:10.250Z,8.83
2023-04-04T15:54:36.910Z,9.38
2023-04-04T15:57:03.693Z,9.37
2023-04-04T15:59:30.441Z,9.67
2023-04-04T16:01:57.796Z,9.21
2023-04-04T16:04:24.443Z,9.01
2023-04-04T16:06:51.033Z,8.84
2023-04-04T16:09:17.717Z,8.51
2023-04-04T16:11:44.349Z,8.19
2023-04-04T16:14:11.075Z,8.24
2023-04-04T16:16:37.723Z,8.56
2023-04-04T16:19:04.467Z,8.56
2023-04-04T16:21:31.321Z,8.31
2023-04-04T16:23:58.112Z,7.78
2023-04-04T16:26:25.255Z,7.98
2023-04-04T16:28:52.884Z,7.93
2023-04-04T16:31:19.582Z,7.78
2023-04-04T16:33:46.499Z,7.30
2023-04-04T16:36:13.268Z,7.38
2023-04-04T16:38:39.969Z,7.47
2023-04-04T16:41:06.780Z,7.40
2023-04-04T16:43:33.401Z,7.02
2023-04-04T16:46:00.148Z,7.20
2023-04-04T16:48:26.777Z,6.74
2023-04-04T16:50:54.520Z,6.66
2023-04-04T16:53:21.287Z,6.55
2023-04-04T16:55:47.932Z,6.48
2023-04-04T16:58:14.693Z,6.44
2023-04-04T17:00:41.570Z,6.56
2023-04-04T17:03:08.760Z,6.44
2023-04-04T17:05:35.472Z,6.82
2023-04-04T17:08:02.075Z,6.55
2023-04-04T17:10:28.796Z,6.35
2023-04-04T17:12:55.445Z,6.06
2023-04-04T17:15:22.142Z,6.29
2023-04-04T17:17:48.841Z,6.11
2023-04-04T17:20:15.577Z,6.16
2023-04-04T17:22:42.181Z,5.80
2023-04-04T17:25:09.174Z,5.96
2023-04-04T17:27:35.843Z,6.19
2023-04-04T17:30:02.560Z,6.16
2023-04-04T17:32:29.441Z,5.84
2023-04-04T17:34:56.099Z,5.77
2023-04-04T17:37:23.019Z,5.58
2023-04-04T17:39:49.745Z,5.72
2023-04-04T17:42:16.416Z,5.61
2023-04-04T17:44:43.240Z,5.72
2023-04-04T17:47:09.909Z,5.36
2023-04-04T17:49:39.759Z,4.98
2023-04-04T17:52:06.576Z,4.80
2023-04-04T17:54:34.869Z,5.04
2023-04-04T17:57:01.477Z,5.12
2023-04-04T17:59:28.170Z,4.87
2023-04-04T18:01:55.008Z,4.62
2023-04-04T18:04:21.757Z,4.80
2023-04-04T18:06:48.361Z,4.88
2023-04-04T18:09:14.957Z,4.93
2023-04-04T18:11:41.582Z,5.01
2023-04-04T18:14:08.541Z,5.00
2023-04-04T18:16:39.825Z,4.65
2023-04-04T18:19:08.380Z,4.64
2023-04-04T18:21:34.970Z,4.85
2023-04-04T18:24:01.609Z,4.62
2023-04-04T18:26:28.318Z,4.44
2023-04-04T18:28:54.916Z,4.27
2023-04-04T18:31:21.660Z,4.39
2023-04-04T18:33:50.811Z,4.28
2023-04-04T18:36:17.554Z,4.29
2023-04-04T18:38:45.436Z,4.32
2023-04-04T18:41:12.535Z,4.08
2023-04-04T18:43:39.134Z,4.09
2023-04-04T18:46:05.939Z,4.09
2023-04-04T18:48:33.534Z,3.97
2023-04-04T18:51:00.782Z,4.13
2023-04-04T18:53:27.497Z,4.29
2023-04-04T18:55:54.175Z,3.68
2023-04-04T18:58:20.875Z,3.54
2023-04-04T19:00:47.629Z,3.48
2023-04-04T19:03:14.399Z,3.45
2023-04-04T19:05:46.677Z,3.62
2023-04-04T19:08:15.880Z,3.72
2023-04-04T19:10:49.757Z,3.39
2023-04-04T19:13:19.470Z,2.91
2023-04-04T19:15:46.062Z,2.88
2023-04-04T19:18:12.780Z,3.18
2023-04-04T19:20:39.442Z,3.04
2023-04-04T19:23:06.074Z,3.02
2023-04-04T19:25:32.765Z,2.68
2023-04-04T19:27:59.398Z,2.77
2023-04-04T19:30:42.536Z,2.73
2023-04-04T19:33:11.660Z,2.86
2023-04-04T19:36:10.901Z,3.16
2023-04-04T19:38:39.854Z,2.64
2023-04-04T19:41:18.404Z,2.42
2023-04-04T19:43:47.006Z,2.16
2023-04-04T19:46:25.211Z,2.00
2023-04-04T19:48:53.958Z,2.15
2023-04-04T19:51:20.536Z,2.23
2023-04-04T19:53:49.113Z,2.43
2023-04-04T19:56:17.379Z,2.45
2023-04-04T19:58:45.163Z,2.34
2023-04-04T20:01:13.414Z,2.38
2023-04-04T20:03:40.759Z,2.19
2023-04-04T20:06:12.569Z,2.13
2023-04-04T20:08:43.001Z,2.16
2023-04-04T20:11:12.157Z,2.07
2023-04-04T20:13:40.352Z,2.39
2023-04-04T20:16:09.761Z,2.53
2023-04-04T20:18:37.952Z,2.38
2023-04-04T20:21:15.813Z,2.24
2023-04-04T20:23:48.807Z,2.03
2023-04-04T20:26:37.040Z,1.93
2023-04-04T20:29:11.691Z,1.97
2023-04-04T20:31:43.950Z,2.18
2023-04-04T20:34:34.195Z,2.00
2023-04-04T20:37:02.592Z,2.21
2023-04-04T20:39:56.179Z,2.04
2023-04-04T20:42:41.049Z,2.05
2023-04-04T20:45:10.747Z,2.00
2023-04-04T20:47:54.429Z,2.09
2023-04-04T20:50:24.127Z,2.22
2023-04-04T20:53:04.229Z,1.78
2023-04-04T20:55:33.057Z,1.33
2023-04-04T20:58:07.953Z,1.81
2023-04-04T21:00:41.447Z,1.76
2023-04-04T21:03:26.067Z,1.72
2023-04-04T21:05:59.493Z,1.88
2023-04-04T21:08:26.194Z,1.81
2023-04-04T21:10:58.660Z,1.54
2023-04-04T21:13:31.392Z,1.78
2023-04-04T21:16:03.629Z,1.77
2023-04-04T21:18:31.788Z,1.83
2023-04-04T21:21:13.628Z,1.65
2023-04-04T21:24:00.399Z,1.67
2023-04-04T21:26:28.201Z,1.52
2023-04-04T21:28:56.753Z,1.06
2023-04-04T21:31:25.977Z,1.13
2023-04-04T21:33:54.830Z,1.20
2023-04-04T21:36:24.457Z,1.24
2023-04-04T21:39:02.057Z,1.05
2023-04-04T21:41:33.737Z,0.91
2023-04-04T21:44:02.745Z,1.16
2023-04-04T21:46:34.197Z,0.93
2023-04-04T21:49:02.361Z,1.10
2023-04-04T21:51:29.183Z,0.93
2023-04-04T21:53:56.282Z,1.13
2023-04-04T21:56:23.129Z,1.24
2023-04-04T21:58:49.739Z,1.29
2023-04-04T22:01:16.467Z,1.00
2023-04-04T22:03:43.153Z,1.21
2023-04-04T22:06:09.898Z,1.15
2023-04-04T22:08:36.546Z,1.29
2023-04-04T22:11:03.452Z,1.15
2023-04-04T22:13:30.385Z,0.99
2023-04-04T22:15:58.021Z,0.97
2023-04-04T22:18:25.096Z,1.06
2023-04-04T22:20:51.698Z,0.92
2023-04-04T22:23:18.286Z,0.87
2023-04-04T22:25:44.885Z,0.94
2023-04-04T22:28:11.698Z,0.93
2023-04-04T22:30:38.599Z,1.19
2023-04-04T22:33:05.513Z,1.13
2023-04-04T22:35:33.156Z,1.05
2023-04-04T22:38:00.286Z,1.09
2023-04-04T22:40:32.193Z,1.16
2023-04-04T22:42:59.989Z,1.14
2023-04-04T22:45:27.378Z,1.10
2023-04-04T22:47:54.117Z,1.18
2023-04-04T22:50:22.484Z,1.07
2023-04-04T22:52:49.116Z,0.72
2023-04-04T22:55:21.891Z,0.61
2023-04-04T22:57:48.514Z,0.64
2023-04-04T23:00:15.707Z,0.83
2023-04-04T23:02:45.431Z,0.77
2023-04-04T23:05:13.897Z,0.62
2023-04-04T23:07:41.833Z,0.62
2023-04-04T23:10:11.570Z,0.63
2023-04-04T23:12:39.136Z,0.37
2023-04-04T23:15:06.984Z,0.45
2023-04-04T23:17:34.967Z,0.51
2023-04-04T23:20:02.403Z,0.61
2023-04-04T23:22:29.747Z,0.49
2023-04-04T23:24:56.390Z,0.43
2023-04-04T23:27:23.062Z,0.12
2023-04-04T23:29:49.666Z,0.29
2023-04-04T23:32:16.344Z,0.24
2023-04-04T23:34:43.144Z,0.45
2023-04-04T23:37:09.787Z,0.29
2023-04-04T23:39:36.427Z,0.27
2023-04-04T23:42:03.130Z,0.37
2023-04-04T23:44:29.818Z,0.27
2023-04-04T23:46:56.859Z,0.17
2023-04-04T23:49:23.570Z,0.44
2023-04-04T23:51:50.220Z,0.10
2023-04-04T23:54:17.059Z,0.10
2023-04-04T23:56:43.753Z,-0.07
2023-04-04T23:59:10.498Z,0.06
